Mobile, AL (36601)

1:37 AM CST on February 06, 2016 (GMT -0600)
Downtown Waterfront | | Change Station
CLOSE
Current Station
Personal Weather Station
Location: Mobile, AL
Elevation: 13 ft
Nearby Weather Stations

Elev 13 ft 30.69 °N, 88.04 °W | Updated 4 seconds ago

Clear
Clear
41.8 °F
Feels Like 39 °F
N
4.0
Wind Variable Wind from North
Gusts 5.0 mph

Today
High -- | Low -- °F
--% Chance of Precip.
Yesterday
High -- | Low -- °F
Precip. -- in
Pressure 30.37 in
Visibility 10.0 miles
Clouds Clear
Windchill 39 °F
Dew Point 33 °F
Humidity 72%
Rainfall 0.00 in
Snow Depth Not available.
6:40 AM 5:32 PM
Waning Crescent, 7% visible
METAR KBFM 060653Z AUTO 00000KT 10SM CLR 02/M02 A3037 RMK AO2 SLP283 T00221022
Pressure 30.37 in
Visibility 10.0 miles
Clouds Clear
Windchill 39 °F
Dew Point 33 °F
Humidity 72%
Rainfall 0.00 in
Snow Depth Not available.
6:40 AM 5:32 PM
Waning Crescent, 7% visible
METAR KBFM 060653Z AUTO 00000KT 10SM CLR 02/M02 A3037 RMK AO2 SLP283 T00221022

10-Day Weather Forecast

Almanac

Astronomy

Feb. 06, 2016 Rise Set
Actual Time
Civil Twilight
Nautical Twilight
Astronomical Twilight
Moon
Length of Visible Light
Length of Day
Tomorrow will be .
, % of the Moon is Illuminated

Today's Extremes

State Highs State Lows

Community

WunderPhotos

Upload Photos

1,890,933 photos uploaded!

WunderBlog® & News

Nearby

Air Quality

  Air Quality AQ Index Pollutant
Not available.

Snow Depth

Station Depth Elevation

Earthquake Activity

City Distance Mag. Time & Date
Minimum magnitude displayed is 2.5.

Coastal Water Temperatures

Place Temperature

Stations

Nearby Weather Stations

Station Location Temp. Windchill Dew Point Humidity Wind Precip. Elev Updated Type
                   

Watches & Warnings

There are currently no watches in effect.